Time;durP1;ratioP1;P1;durP2;ratioP2;P2;SDS_P1;SDS_P2;PMS_P1;PMS_P2;Temp;Humidity;BMP_temperature;BMP_pressure;BME280_temperature;BME280_humidity;BME280_pressure;Samples;Min_cycle;Max_cycle;Signal;HPM_P1;HPM_P2
2021/12/02 00:02:08;;;;;;;10.82;5.97;;;;;;;;;;6215040;28;20411;-60
2021/12/02 00:05:08;;;;;;;8.77;3.97;;;;;;;;;;6215892;28;20046;-62
2021/12/02 00:08:09;;;;;;;8.60;4.32;;;;;;;;;;6215779;28;20157;-60
2021/12/02 00:11:10;;;;;;;7.75;4.15;;;;;;;;;;6215485;28;20056;-61
2021/12/02 00:14:13;;;;;;;8.52;4.70;;;;;;;;;;6216541;28;20090;-61
2021/12/02 00:17:54;;;;;;;7.93;4.78;;;;;;;;;;6215819;28;20069;-62
2021/12/02 00:24:08;;;;;;;;;;;;;;;;;;6214296;28;20042;-60
2021/12/02 00:27:09;;;;;;;9.25;4.22;;;;;;;;;;6214275;28;19925;-59
2021/12/02 00:30:10;;;;;;;7.85;3.80;;;;;;;;;;6215028;28;20390;-63
2021/12/02 00:33:13;;;;;;;10.43;4.10;;;;;;;;;;6214171;28;20046;-59
2021/12/02 00:36:15;;;;;;;7.13;3.95;;;;;;;;;;6216000;28;20073;-63
2021/12/02 00:39:18;;;;;;;8.07;4.32;;;;;;;;;;6214753;28;20046;-59
2021/12/02 00:42:20;;;;;;;8.27;4.63;;;;;;;;;;6215916;28;20057;-62
2021/12/02 00:45:21;;;;;;;8.13;4.37;;;;;;;;;;6216406;28;20404;-59
2021/12/02 00:48:22;;;;;;;8.45;4.60;;;;;;;;;;6215658;28;20460;-60
2021/12/02 00:51:26;;;;;;;10.07;5.15;;;;;;;;;;6215970;28;20050;-59
2021/12/02 00:54:28;;;;;;;9.13;4.90;;;;;;;;;;6215873;28;20050;-62
2021/12/02 00:57:29;;;;;;;7.90;4.47;;;;;;;;;;6215487;28;20560;-62
2021/12/02 01:00:31;;;;;;;9.43;4.18;;;;;;;;;;6214523;28;20133;-61
2021/12/02 01:03:36;;;;;;;9.98;4.30;;;;;;;;;;6214358;28;20045;-59
2021/12/02 01:06:38;;;;;;;7.60;4.15;;;;;;;;;;6214426;28;20125;-61
2021/12/02 01:09:39;;;;;;;7.15;4.28;;;;;;;;;;6211007;28;20489;-61
2021/12/02 01:12:40;;;;;;;7.75;4.00;;;;;;;;;;6210195;28;20507;-60
2021/12/02 01:15:40;;;;;;;8.35;4.32;;;;;;;;;;6214074;28;20050;-61
2021/12/02 01:18:41;;;;;;;6.85;3.97;;;;;;;;;;6209923;28;20085;-61
2021/12/02 01:21:43;;;;;;;7.25;3.33;;;;;;;;;;6208120;28;20042;-61
2021/12/02 01:24:49;;;;;;;5.87;3.53;;;;;;;;;;6208072;28;20161;-61
2021/12/02 01:27:51;;;;;;;6.85;3.20;;;;;;;;;;6211668;28;20300;-58
2021/12/02 01:30:53;;;;;;;6.93;3.83;;;;;;;;;;6210295;28;20077;-60
2021/12/02 01:33:54;;;;;;;6.97;3.28;;;;;;;;;;6207938;28;20096;-60
2021/12/02 01:36:55;;;;;;;6.72;3.17;;;;;;;;;;6207707;28;20050;-61
2021/12/02 01:39:57;;;;;;;6.93;3.20;;;;;;;;;;6211281;28;20413;-60
2021/12/02 01:42:58;;;;;;;5.78;3.25;;;;;;;;;;6209007;28;20765;-59
2021/12/02 01:45:59;;;;;;;7.75;3.03;;;;;;;;;;6215152;28;20116;-60
2021/12/02 01:49:06;;;;;;;9.75;3.53;;;;;;;;;;6215647;28;20137;-61
2021/12/02 01:52:10;;;;;;;8.20;3.03;;;;;;;;;;6211768;28;20471;-60
2021/12/02 01:55:14;;;;;;;5.57;3.00;;;;;;;;;;6211691;28;20096;-59
2021/12/02 01:58:19;;;;;;;7.63;3.25;;;;;;;;;;6213203;28;20065;-60
2021/12/02 02:01:22;;;;;;;8.57;3.50;;;;;;;;;;6215262;28;20049;-59
2021/12/02 02:04:23;;;;;;;;;;;;;;;;;;6214397;28;20494;-60
2021/12/02 02:07:24;;;;;;;6.05;3.38;;;;;;;;;;6213545;28;20315;-59
2021/12/02 02:10:27;;;;;;;5.63;3.00;;;;;;;;;;6213917;28;20104;-59
2021/12/02 02:13:28;;;;;;;7.32;3.20;;;;;;;;;;6213270;28;20088;-59
2021/12/02 02:16:28;;;;;;;7.55;2.58;;;;;;;;;;6212354;28;20057;-59
2021/12/02 02:19:31;;;;;;;5.10;2.72;;;;;;;;;;6215103;28;20046;-59
2021/12/02 02:22:32;;;;;;;7.13;3.15;;;;;;;;;;6215210;28;20062;-60
2021/12/02 02:25:33;;;;;;;5.60;2.85;;;;;;;;;;6212058;28;20124;-59
2021/12/02 02:28:35;;;;;;;6.13;3.60;;;;;;;;;;6211956;28;20468;-59
2021/12/02 02:31:38;;;;;;;6.80;2.88;;;;;;;;;;6212492;28;20072;-60
2021/12/02 02:34:38;;;;;;;7.47;3.42;;;;;;;;;;6210670;28;20080;-59
2021/12/02 02:37:39;;;;;;;6.93;2.95;;;;;;;;;;6214334;28;20045;-59
2021/12/02 02:40:43;;;;;;;6.07;3.38;;;;;;;;;;6214185;28;20478;-59
2021/12/02 02:43:48;;;;;;;7.05;3.17;;;;;;;;;;6212697;28;20054;-59
2021/12/02 02:46:49;;;;;;;6.53;3.13;;;;;;;;;;6213567;28;20150;-59
2021/12/02 02:49:50;;;;;;;7.32;3.10;;;;;;;;;;6213474;28;20042;-59
2021/12/02 02:53:18;;;;;;;7.60;2.92;;;;;;;;;;6211871;28;20058;-61
2021/12/02 02:56:21;;;;;;;5.72;3.05;;;;;;;;;;6209030;28;20054;-59
2021/12/02 03:09:06;;;;;;;4.03;1.90;;;;;;;;;;6211931;28;20053;-61
2021/12/02 03:18:10;;;;;;;3.88;1.90;;;;;;;;;;6211203;28;20042;-61
2021/12/02 03:21:21;;;;;;;5.47;2.35;;;;;;;;;;6214540;28;20045;-61
2021/12/02 03:24:23;;;;;;;4.67;2.33;;;;;;;;;;6211902;28;20807;-61
2021/12/02 03:27:24;;;;;;;4.65;2.67;;;;;;;;;;6210066;28;20145;-61
2021/12/02 03:30:24;;;;;;;5.82;2.50;;;;;;;;;;6212233;28;20560;-60
2021/12/02 03:33:25;;;;;;;4.88;2.58;;;;;;;;;;6210669;28;20053;-61
2021/12/02 03:36:26;;;;;;;5.05;2.30;;;;;;;;;;6212031;28;20042;-60
2021/12/02 03:39:27;;;;;;;4.77;2.27;;;;;;;;;;6212176;28;20139;-59
2021/12/02 03:42:28;;;;;;;4.55;2.20;;;;;;;;;;6213630;28;20489;-59
2021/12/02 03:45:32;;;;;;;5.53;2.40;;;;;;;;;;6213409;28;20092;-63
2021/12/02 03:48:33;;;;;;;4.53;2.33;;;;;;;;;;6213578;28;20560;-62
2021/12/02 03:51:33;;;;;;;5.18;2.20;;;;;;;;;;6211388;28;20046;-60
2021/12/02 03:54:34;;;;;;;4.93;2.25;;;;;;;;;;6210978;28;20815;-59
2021/12/02 03:57:35;;;;;;;5.30;2.63;;;;;;;;;;6211006;28;20382;-60
2021/12/02 04:00:35;;;;;;;5.15;2.22;;;;;;;;;;6210591;28;20046;-61
2021/12/02 04:03:37;;;;;;;4.43;2.28;;;;;;;;;;6210786;28;20046;-59
2021/12/02 04:06:38;;;;;;;6.38;2.40;;;;;;;;;;6210543;28;20053;-65
2021/12/02 04:09:42;;;;;;;5.97;2.30;;;;;;;;;;6211006;28;20094;-59
2021/12/02 04:15:53;;;;;;;5.63;2.65;;;;;;;;;;6214550;28;20062;-59
2021/12/02 04:18:54;;;;;;;5.05;2.03;;;;;;;;;;6215613;28;20072;-60
2021/12/02 04:21:57;;;;;;;6.05;2.78;;;;;;;;;;6216708;28;20144;-60
2021/12/02 04:24:57;;;;;;;6.65;2.40;;;;;;;;;;6218377;28;20050;-59
2021/12/02 04:27:58;;;;;;;5.38;2.40;;;;;;;;;;6211527;28;21366;-59
2021/12/02 04:30:59;;;;;;;5.30;2.42;;;;;;;;;;6211370;28;20076;-59
2021/12/02 04:33:59;;;;;;;6.88;2.53;;;;;;;;;;6211912;28;20120;-59
2021/12/02 04:37:00;;;;;;;7.45;2.53;;;;;;;;;;6213541;28;20042;-59
2021/12/02 04:40:01;;;;;;;5.85;2.40;;;;;;;;;;6211954;28;20050;-59
2021/12/02 04:43:02;;;;;;;6.00;2.33;;;;;;;;;;6210546;28;20046;-61
2021/12/02 04:46:03;;;;;;;5.93;2.30;;;;;;;;;;6207916;28;20043;-59
2021/12/02 04:49:03;;;;;;;5.28;2.30;;;;;;;;;;6212078;28;20453;-62
2021/12/02 04:52:04;;;;;;;9.93;2.85;;;;;;;;;;6213553;28;20058;-59
2021/12/02 04:55:08;;;;;;;5.55;2.20;;;;;;;;;;6213930;28;20436;-59
2021/12/02 04:58:09;;;;;;;6.03;2.45;;;;;;;;;;6215224;28;20049;-62
2021/12/02 05:01:09;;;;;;;18.77;4.13;;;;;;;;;;6214257;28;20529;-61
2021/12/02 05:04:10;;;;;;;10.20;3.20;;;;;;;;;;6214684;28;20188;-61
2021/12/02 05:07:11;;;;;;;6.07;2.45;;;;;;;;;;6214584;28;20188;-61
2021/12/02 05:10:11;;;;;;;4.65;2.20;;;;;;;;;;6213279;28;20061;-59
2021/12/02 05:13:12;;;;;;;4.72;2.17;;;;;;;;;;6215648;28;20038;-61
2021/12/02 05:16:13;;;;;;;5.03;2.70;;;;;;;;;;6215374;28;20042;-62
2021/12/02 05:19:13;;;;;;;4.57;2.38;;;;;;;;;;6218282;28;20046;-59
2021/12/02 05:22:15;;;;;;;4.70;2.33;;;;;;;;;;6220772;28;20440;-60
2021/12/02 05:25:15;;;;;;;4.68;2.25;;;;;;;;;;6206495;28;20056;-65
2021/12/02 05:28:17;;;;;;;4.10;1.90;;;;;;;;;;6216161;28;20509;-65
2021/12/02 05:31:19;;;;;;;4.75;2.22;;;;;;;;;;6217628;28;20128;-59
2021/12/02 05:34:21;;;;;;;4.68;2.15;;;;;;;;;;6215835;28;20144;-59
2021/12/02 05:37:21;;;;;;;5.03;2.10;;;;;;;;;;6218185;28;20492;-59
2021/12/02 05:40:22;;;;;;;6.10;2.40;;;;;;;;;;6219247;28;20056;-59
2021/12/02 05:43:23;;;;;;;4.35;1.88;;;;;;;;;;6219829;28;20144;-59
2021/12/02 05:46:23;;;;;;;5.05;2.15;;;;;;;;;;6218938;28;20089;-61
2021/12/02 05:49:24;;;;;;;4.88;1.80;;;;;;;;;;6218578;28;20052;-59
2021/12/02 05:52:25;;;;;;;4.90;2.63;;;;;;;;;;6218943;28;20547;-61
2021/12/02 05:55:25;;;;;;;4.53;2.03;;;;;;;;;;6219644;28;20103;-63
2021/12/02 05:58:26;;;;;;;4.00;2.20;;;;;;;;;;6218513;28;20523;-61
2021/12/02 06:01:26;;;;;;;8.00;3.35;;;;;;;;;;6215453;28;20049;-60
2021/12/02 06:04:27;;;;;;;3.75;1.80;;;;;;;;;;6217255;28;20485;-59
2021/12/02 06:07:28;;;;;;;4.75;1.85;;;;;;;;;;6215450;28;20517;-63
2021/12/02 06:10:30;;;;;;;4.03;2.00;;;;;;;;;;6216220;28;20489;-65
2021/12/02 06:13:31;;;;;;;4.57;1.75;;;;;;;;;;6368980;22;20069;-69
2021/12/02 06:16:32;;;;;;;4.60;1.95;;;;;;;;;;6223651;28;20133;-67
2021/12/02 06:19:32;;;;;;;5.65;2.88;;;;;;;;;;6212597;28;20045;-70
2021/12/02 06:22:33;;;;;;;6.20;2.55;;;;;;;;;;6213775;28;20061;-63
2021/12/02 06:28:35;;;;;;;4.13;2.28;;;;;;;;;;6210840;28;20104;-62
2021/12/02 06:31:35;;;;;;;4.75;2.10;;;;;;;;;;6207053;28;20128;-62
2021/12/02 06:34:36;;;;;;;6.70;2.72;;;;;;;;;;6202334;28;20413;-62
2021/12/02 06:37:37;;;;;;;6.18;2.42;;;;;;;;;;6208843;28;20067;-64
2021/12/02 06:40:40;;;;;;;6.95;2.40;;;;;;;;;;6207696;28;20136;-61
2021/12/02 06:43:40;;;;;;;;;;;;;;;;;;6205342;28;20049;-63
2021/12/02 06:46:41;;;;;;;4.60;2.55;;;;;;;;;;6209441;28;19975;-62
2021/12/02 06:49:42;;;;;;;6.10;2.35;;;;;;;;;;6209473;28;20132;-63
2021/12/02 06:52:44;;;;;;;4.47;2.13;;;;;;;;;;6206588;28;20723;-60
2021/12/02 06:55:44;;;;;;;4.95;2.28;;;;;;;;;;6207762;28;20073;-61
2021/12/02 06:58:45;;;;;;;4.57;2.22;;;;;;;;;;6208052;28;20495;-60
2021/12/02 07:01:46;;;;;;;10.15;4.43;;;;;;;;;;6204118;28;20073;-60
2021/12/02 07:04:51;;;;;;;5.20;2.38;;;;;;;;;;6206435;28;20062;-60
2021/12/02 07:07:51;;;;;;;6.68;3.67;;;;;;;;;;6208108;28;20132;-59
2021/12/02 07:10:52;;;;;;;6.85;3.50;;;;;;;;;;6208843;28;20046;-60
2021/12/02 07:13:59;;;;;;;4.97;2.25;;;;;;;;;;6205653;28;20042;-60
2021/12/02 07:17:00;;;;;;;4.63;2.13;;;;;;;;;;6204144;28;20042;-60
2021/12/02 07:20:00;;;;;;;4.72;2.20;;;;;;;;;;6202991;28;20038;-60
2021/12/02 07:23:02;;;;;;;5.03;2.25;;;;;;;;;;6204775;28;20050;-60
2021/12/02 07:26:03;;;;;;;6.23;2.27;;;;;;;;;;6205293;28;20046;-60
2021/12/02 07:29:03;;;;;;;5.88;2.40;;;;;;;;;;6202935;28;20050;-60
2021/12/02 07:32:04;;;;;;;5.35;2.33;;;;;;;;;;6205089;28;20133;-60
2021/12/02 07:35:12;;;;;;;5.55;2.40;;;;;;;;;;6202294;28;20394;-60
2021/12/02 07:38:13;;;;;;;5.20;2.30;;;;;;;;;;6207824;28;20050;-60
2021/12/02 07:41:15;;;;;;;;;;;;;;;;;;6202906;28;20413;-60
2021/12/02 07:44:17;;;;;;;5.03;2.33;;;;;;;;;;6206704;28;20016;-59
2021/12/02 07:47:19;;;;;;;4.45;2.38;;;;;;;;;;6207578;28;20492;-60
2021/12/02 07:50:20;;;;;;;4.33;2.00;;;;;;;;;;6208198;28;20061;-60
2021/12/02 07:53:24;;;;;;;4.95;2.53;;;;;;;;;;6203496;28;20314;-60
2021/12/02 07:56:25;;;;;;;5.07;2.33;;;;;;;;;;6200775;28;20507;-60
2021/12/02 07:59:26;;;;;;;5.65;2.10;;;;;;;;;;6206484;28;20038;-60
2021/12/02 08:02:32;;;;;;;3.90;2.10;;;;;;;;;;6202951;28;20054;-60
2021/12/02 08:05:33;;;;;;;5.38;2.60;;;;;;;;;;6200884;28;20058;-60
2021/12/02 08:08:34;;;;;;;4.57;2.10;;;;;;;;;;6206425;28;20513;-60
2021/12/02 08:11:36;;;;;;;6.10;2.45;;;;;;;;;;6206175;28;20535;-60
2021/12/02 08:14:36;;;;;;;4.97;2.60;;;;;;;;;;6205892;28;20089;-60
2021/12/02 08:17:37;;;;;;;5.78;2.70;;;;;;;;;;6207722;28;20041;-60
2021/12/02 08:20:38;;;;;;;5.35;2.70;;;;;;;;;;6214748;28;20125;-60
2021/12/02 08:23:38;;;;;;;5.68;2.60;;;;;;;;;;6213843;28;20477;-60
2021/12/02 08:26:39;;;;;;;7.10;4.28;;;;;;;;;;6197888;28;20492;-60
2021/12/02 08:29:42;;;;;;;5.57;2.65;;;;;;;;;;6207793;28;20046;-60
2021/12/02 08:32:43;;;;;;;5.53;2.60;;;;;;;;;;6206694;28;20046;-60
2021/12/02 08:35:44;;;;;;;8.60;3.33;;;;;;;;;;6205547;28;20058;-60
2021/12/02 08:38:47;;;;;;;5.53;2.72;;;;;;;;;;6208470;28;20060;-60
2021/12/02 08:41:49;;;;;;;5.75;2.83;;;;;;;;;;6207535;28;20081;-60
2021/12/02 08:44:50;;;;;;;5.57;3.03;;;;;;;;;;6202805;28;20058;-60
2021/12/02 08:47:51;;;;;;;5.00;2.70;;;;;;;;;;6205038;28;20061;-60
2021/12/02 08:50:52;;;;;;;5.57;3.25;;;;;;;;;;6205668;28;20042;-61
2021/12/02 08:53:52;;;;;;;6.75;3.03;;;;;;;;;;6209398;28;20043;-64
2021/12/02 08:56:55;;;;;;;4.50;2.60;;;;;;;;;;6207714;28;20042;-63
2021/12/02 08:59:55;;;;;;;;;;;;;;;;;;6212577;28;20133;-61
2021/12/02 09:02:56;;;;;;;5.03;2.47;;;;;;;;;;6211329;28;20364;-61
2021/12/02 09:05:56;;;;;;;7.28;3.20;;;;;;;;;;6205911;28;20038;-61
2021/12/02 09:08:58;;;;;;;7.60;4.03;;;;;;;;;;6206413;28;20126;-61
2021/12/02 09:11:59;;;;;;;9.82;6.30;;;;;;;;;;6210603;28;20113;-61
2021/12/02 09:15:00;;;;;;;5.43;3.20;;;;;;;;;;6212304;28;20441;-61
2021/12/02 09:18:01;;;;;;;5.70;3.38;;;;;;;;;;6220788;28;20080;-61
2021/12/02 09:21:02;;;;;;;8.23;4.75;;;;;;;;;;6220129;28;20053;-63
2021/12/02 09:24:03;;;;;;;7.70;3.95;;;;;;;;;;6209507;28;20484;-60
2021/12/02 09:27:04;;;;;;;7.03;3.42;;;;;;;;;;6218016;28;20046;-62
2021/12/02 09:30:07;;;;;;;8.52;3.90;;;;;;;;;;6217734;28;20050;-60
2021/12/02 09:33:07;;;;;;;7.72;3.47;;;;;;;;;;6219216;28;20452;-60
2021/12/02 09:36:08;;;;;;;8.02;3.72;;;;;;;;;;6215153;28;20097;-60
2021/12/02 09:39:10;;;;;;;7.53;3.80;;;;;;;;;;6218579;28;20048;-60
2021/12/02 09:42:11;;;;;;;8.68;3.72;;;;;;;;;;6218389;28;20065;-63
2021/12/02 09:45:14;;;;;;;8.05;3.53;;;;;;;;;;6216942;28;20073;-62
2021/12/02 09:48:15;;;;;;;8.68;3.72;;;;;;;;;;6217534;28;20385;-62
2021/12/02 09:51:22;;;;;;;8.88;3.92;;;;;;;;;;6217133;28;20057;-62
2021/12/02 09:54:53;;;;;;;8.60;3.88;;;;;;;;;;6215231;28;20401;-62
2021/12/02 09:57:49;;;;;;;10.13;4.03;;;;;;;;;;6217690;28;20157;-62
2021/12/02 10:00:57;;;;;;;15.40;6.43;;;;;;;;;;6217284;28;20144;-61
2021/12/02 10:04:01;;;;;;;8.77;5.45;;;;;;;;;;6217961;28;20065;-61
2021/12/02 10:07:28;;;;;;;11.23;5.38;;;;;;;;;;6218075;28;20474;-63
2021/12/02 10:10:32;;;;;;;9.18;5.07;;;;;;;;;;6217178;28;20049;-62
2021/12/02 10:13:44;;;;;;;9.30;4.07;;;;;;;;;;6215606;28;20046;-61
2021/12/02 10:16:47;;;;;;;10.68;5.10;;;;;;;;;;6217089;28;20046;-61
2021/12/02 10:20:25;;;;;;;12.00;4.75;;;;;;;;;;6214910;28;20052;-64
2021/12/02 10:23:29;;;;;;;9.98;3.47;;;;;;;;;;6209426;28;20512;-62
2021/12/02 10:26:38;;;;;;;6.65;3.08;;;;;;;;;;6211852;28;20140;-61
2021/12/02 10:29:39;;;;;;;8.50;3.42;;;;;;;;;;6216172;28;20099;-61
2021/12/02 10:32:50;;;;;;;8.23;3.05;;;;;;;;;;6218191;28;20121;-61
2021/12/02 10:35:51;;;;;;;7.47;3.30;;;;;;;;;;6214161;28;20650;-61
2021/12/02 10:38:55;;;;;;;7.38;3.30;;;;;;;;;;6217294;28;20049;-61
2021/12/02 10:42:05;;;;;;;7.78;3.55;;;;;;;;;;6218337;28;20067;-60
2021/12/02 10:45:07;;;;;;;9.07;3.10;;;;;;;;;;6208431;28;20077;-60
2021/12/02 10:48:07;;;;;;;15.93;7.27;;;;;;;;;;6207445;28;20058;-64
2021/12/02 10:51:30;;;;;;;9.85;4.40;;;;;;;;;;6210760;28;20499;-61
2021/12/02 10:54:34;;;;;;;9.60;4.00;;;;;;;;;;6214721;28;20056;-61
2021/12/02 10:57:45;;;;;;;7.45;3.20;;;;;;;;;;6217320;28;20050;-61
2021/12/02 11:00:46;;;;;;;7.40;3.28;;;;;;;;;;6215641;28;20046;-60
2021/12/02 11:04:05;;;;;;;8.45;3.80;;;;;;;;;;6218503;28;20085;-60
2021/12/02 11:07:11;;;;;;;12.32;3.72;;;;;;;;;;6202214;28;20484;-62
2021/12/02 11:10:15;;;;;;;9.48;3.78;;;;;;;;;;6201587;28;20050;-61
2021/12/02 11:13:24;;;;;;;8.38;3.15;;;;;;;;;;6206275;28;20058;-61
2021/12/02 11:16:35;;;;;;;6.32;2.67;;;;;;;;;;6213330;28;20065;-60
2021/12/02 11:19:35;;;;;;;6.75;3.55;;;;;;;;;;6210843;28;20053;-64
2021/12/02 11:22:36;;;;;;;9.57;3.10;;;;;;;;;;6213035;28;20404;-61
2021/12/02 11:25:53;;;;;;;7.70;3.10;;;;;;;;;;6209332;28;20740;-60
2021/12/02 11:28:54;;;;;;;5.88;3.03;;;;;;;;;;6206129;28;20061;-60
2021/12/02 11:31:55;;;;;;;7.78;3.17;;;;;;;;;;6216320;28;20050;-60
2021/12/02 11:35:29;;;;;;;6.70;2.90;;;;;;;;;;6210940;28;20045;-60
2021/12/02 11:38:31;;;;;;;6.90;3.20;;;;;;;;;;6217015;28;20527;-61
2021/12/02 11:41:32;;;;;;;7.60;2.80;;;;;;;;;;6210503;28;20161;-60
2021/12/02 11:44:33;;;;;;;15.88;4.00;;;;;;;;;;6213174;28;20103;-60
2021/12/02 11:47:35;;;;;;;6.57;3.13;;;;;;;;;;6217165;28;20131;-63
2021/12/02 11:50:35;;;;;;;13.23;6.95;;;;;;;;;;6214092;28;20042;-59
2021/12/02 11:53:36;;;;;;;9.18;3.28;;;;;;;;;;6217302;28;20065;-63
2021/12/02 11:56:37;;;;;;;7.43;3.10;;;;;;;;;;6215959;28;20120;-60
2021/12/02 11:59:38;;;;;;;8.88;4.05;;;;;;;;;;6214120;28;20042;-60
2021/12/02 12:02:47;;;;;;;11.07;3.58;;;;;;;;;;6211438;28;20077;-59
2021/12/02 12:06:01;;;;;;;8.30;3.53;;;;;;;;;;6205801;28;20126;-61
2021/12/02 12:09:10;;;;;;;9.05;3.33;;;;;;;;;;6211234;28;20338;-60
2021/12/02 12:12:11;;;;;;;7.95;3.50;;;;;;;;;;6208744;28;20117;-60
2021/12/02 12:15:32;;;;;;;10.30;4.60;;;;;;;;;;6215084;28;20046;-60
2021/12/02 12:18:39;;;;;;;11.50;3.90;;;;;;;;;;6213152;28;20084;-60
2021/12/02 12:21:44;;;;;;;11.65;5.72;;;;;;;;;;6215772;28;20050;-60
2021/12/02 12:24:53;;;;;;;9.25;3.65;;;;;;;;;;6208285;28;20077;-60
2021/12/02 12:27:59;;;;;;;13.38;4.68;;;;;;;;;;6216179;28;20084;-61
2021/12/02 12:31:07;;;;;;;11.25;5.55;;;;;;;;;;6205432;28;20078;-61
2021/12/02 12:34:31;;;;;;;10.20;4.25;;;;;;;;;;6211910;28;20070;-60
2021/12/02 12:40:44;;;;;;;11.82;4.53;;;;;;;;;;6210467;28;20468;-60
2021/12/02 12:43:48;;;;;;;9.40;4.30;;;;;;;;;;6212894;28;20515;-60
2021/12/02 12:46:55;;;;;;;11.65;4.55;;;;;;;;;;6214108;28;20100;-64
2021/12/02 12:50:31;;;;;;;10.38;4.50;;;;;;;;;;6205705;28;20499;-64
2021/12/02 12:53:32;;;;;;;10.13;4.32;;;;;;;;;;6206585;28;20050;-62
2021/12/02 12:56:36;;;;;;;9.95;4.25;;;;;;;;;;6205550;28;20132;-63
2021/12/02 12:59:50;;;;;;;11.07;4.40;;;;;;;;;;6207947;28;20552;-60
2021/12/02 13:02:54;;;;;;;11.68;4.72;;;;;;;;;;6212678;28;20069;-60
2021/12/02 13:06:21;;;;;;;9.70;4.60;;;;;;;;;;6212120;28;20058;-63
2021/12/02 13:09:58;;;;;;;13.50;6.45;;;;;;;;;;6213466;28;20100;-64
2021/12/02 13:12:59;;;;;;;11.35;5.03;;;;;;;;;;6207352;28;20687;-62
2021/12/02 13:16:15;;;;;;;13.95;5.53;;;;;;;;;;6211728;28;20057;-60
2021/12/02 13:19:15;;;;;;;12.32;6.07;;;;;;;;;;6213400;28;20381;-60
2021/12/02 13:22:16;;;;;;;13.55;5.65;;;;;;;;;;6215635;28;20049;-61
2021/12/02 13:25:27;;;;;;;17.40;6.32;;;;;;;;;;6211798;28;20045;-61
2021/12/02 13:28:39;;;;;;;13.68;6.20;;;;;;;;;;6209623;28;20415;-62
2021/12/02 13:31:42;;;;;;;14.13;6.20;;;;;;;;;;6207075;28;20046;-60
2021/12/02 13:34:43;;;;;;;17.35;6.38;;;;;;;;;;6202895;28;20196;-60
2021/12/02 13:37:43;;;;;;;14.95;6.43;;;;;;;;;;6211513;28;20048;-63
2021/12/02 13:40:44;;;;;;;15.48;6.13;;;;;;;;;;6213048;28;20100;-62
2021/12/02 13:43:55;;;;;;;15.20;6.03;;;;;;;;;;6218182;28;20476;-64
2021/12/02 13:47:01;;;;;;;13.73;5.68;;;;;;;;;;6203759;28;20046;-60
2021/12/02 13:50:06;;;;;;;15.20;6.25;;;;;;;;;;6212929;28;20061;-62
2021/12/02 13:53:07;;;;;;;18.02;7.25;;;;;;;;;;6207100;28;20137;-61
2021/12/02 13:56:08;;;;;;;19.03;6.97;;;;;;;;;;6213136;28;20049;-67
2021/12/02 13:59:15;;;;;;;17.42;7.45;;;;;;;;;;6215428;28;20049;-59
2021/12/02 14:02:21;;;;;;;19.48;7.40;;;;;;;;;;6212310;28;20054;-61
2021/12/02 14:05:25;;;;;;;21.02;7.90;;;;;;;;;;6215887;28;20498;-60
2021/12/02 14:08:29;;;;;;;20.77;7.88;;;;;;;;;;6201907;28;20412;-64
2021/12/02 14:11:29;;;;;;;16.90;7.47;;;;;;;;;;6210976;28;20058;-60
2021/12/02 14:14:30;;;;;;;17.70;6.97;;;;;;;;;;6205536;28;20627;-66
2021/12/02 14:17:32;;;;;;;65.20;31.63;;;;;;;;;;6208717;28;20458;-60
2021/12/02 14:20:44;;;;;;;26.02;10.38;;;;;;;;;;6210855;28;20068;-59
2021/12/02 14:23:49;;;;;;;39.53;19.23;;;;;;;;;;6215563;28;20056;-63
2021/12/02 14:26:50;;;;;;;17.75;6.68;;;;;;;;;;6211327;28;20095;-60
2021/12/02 14:30:09;;;;;;;15.77;6.63;;;;;;;;;;6200113;28;20057;-61
2021/12/02 14:33:11;;;;;;;15.15;7.03;;;;;;;;;;6207395;28;20057;-61
2021/12/02 14:36:17;;;;;;;19.05;6.93;;;;;;;;;;6219655;28;20483;-61
2021/12/02 14:39:22;;;;;;;16.25;6.82;;;;;;;;;;6208191;28;20937;-63
2021/12/02 14:42:23;;;;;;;17.17;6.70;;;;;;;;;;6214974;28;20077;-62
2021/12/02 14:45:23;;;;;;;16.67;7.30;;;;;;;;;;6196596;28;20046;-62
2021/12/02 14:48:28;;;;;;;17.80;7.25;;;;;;;;;;6200449;28;20160;-62
2021/12/02 14:51:28;;;;;;;20.25;7.53;;;;;;;;;;6193922;28;20535;-63
2021/12/02 14:54:39;;;;;;;21.83;8.15;;;;;;;;;;6196625;28;20053;-63
2021/12/02 14:57:44;;;;;;;21.35;8.90;;;;;;;;;;6194656;28;20141;-64
2021/12/02 15:00:45;;;;;;;22.90;9.60;;;;;;;;;;6195542;28;20141;-64
2021/12/02 15:03:45;;;;;;;18.42;8.70;;;;;;;;;;6192185;28;20132;-61
2021/12/02 15:06:49;;;;;;;21.45;8.27;;;;;;;;;;6194530;28;20104;-68
2021/12/02 15:09:51;;;;;;;20.92;8.55;;;;;;;;;;6193511;28;20050;-62
2021/12/02 15:13:03;;;;;;;22.23;10.48;;;;;;;;;;6194665;28;20060;-59
2021/12/02 15:16:04;;;;;;;20.50;9.68;;;;;;;;;;6195553;28;20496;-61
2021/12/02 15:19:05;;;;;;;22.20;8.57;;;;;;;;;;6195641;28;20197;-60
2021/12/02 15:22:24;;;;;;;17.80;7.88;;;;;;;;;;6194010;28;20042;-59
2021/12/02 15:25:35;;;;;;;22.15;10.13;;;;;;;;;;6197401;28;20058;-60
2021/12/02 15:28:46;;;;;;;28.55;11.23;;;;;;;;;;6194483;28;20049;-61
2021/12/02 15:31:46;;;;;;;24.85;10.25;;;;;;;;;;6195037;28;20141;-61
2021/12/02 15:34:47;;;;;;;32.60;12.13;;;;;;;;;;6192429;28;20508;-61
2021/12/02 15:37:48;;;;;;;35.08;14.50;;;;;;;;;;6195957;28;20053;-63
2021/12/02 15:40:49;;;;;;;32.88;13.88;;;;;;;;;;6199339;28;20065;-63
2021/12/02 15:43:57;;;;;;;31.58;14.50;;;;;;;;;;6192268;28;20161;-65
2021/12/02 15:47:00;;;;;;;41.90;21.27;;;;;;;;;;6195394;28;20085;-65
2021/12/02 15:50:03;;;;;;;44.53;23.75;;;;;;;;;;6196302;28;20076;-61
2021/12/02 15:53:08;;;;;;;47.70;23.80;;;;;;;;;;6195377;28;20049;-61
2021/12/02 15:56:08;;;;;;;35.97;18.92;;;;;;;;;;6196250;28;20054;-63
2021/12/02 15:59:11;;;;;;;34.58;14.60;;;;;;;;;;6201717;28;20076;-62
2021/12/02 16:02:22;;;;;;;;;;;;;;;;;;6195129;28;20203;-59
2021/12/02 16:15:17;;;;;;;27.08;11.82;;;;;;;;;;6194953;28;20090;-61
2021/12/02 16:18:18;;;;;;;28.95;11.80;;;;;;;;;;6199574;28;20423;-60
2021/12/02 16:21:19;;;;;;;28.20;11.33;;;;;;;;;;6199900;28;20120;-64
2021/12/02 16:24:19;;;;;;;26.80;11.07;;;;;;;;;;6194504;28;20054;-62
2021/12/02 16:27:22;;;;;;;30.13;11.82;;;;;;;;;;6191589;28;20172;-63
2021/12/02 16:30:23;;;;;;;33.00;13.18;;;;;;;;;;6194758;28;20050;-60
2021/12/02 16:33:25;;;;;;;56.03;20.83;;;;;;;;;;6192648;28;20058;-61
2021/12/02 16:36:25;;;;;;;52.65;21.75;;;;;;;;;;6191516;28;20452;-60
2021/12/02 16:39:36;;;;;;;82.30;35.03;;;;;;;;;;6194011;28;20073;-66
2021/12/02 16:42:41;;;;;;;57.72;24.48;;;;;;;;;;6194362;28;21534;-63
2021/12/02 16:45:44;;;;;;;45.67;18.98;;;;;;;;;;6192223;28;20042;-67
2021/12/02 16:48:45;;;;;;;46.05;18.67;;;;;;;;;;6190364;28;20497;-66
2021/12/02 16:51:45;;;;;;;46.10;19.20;;;;;;;;;;6193940;28;20057;-66
2021/12/02 16:54:47;;;;;;;53.40;19.15;;;;;;;;;;6198763;28;20050;-64
2021/12/02 16:57:48;;;;;;;44.10;16.57;;;;;;;;;;6189249;28;20042;-63
2021/12/02 17:00:48;;;;;;;45.10;18.20;;;;;;;;;;6193539;28;20116;-62
2021/12/02 17:03:49;;;;;;;47.95;18.60;;;;;;;;;;6193154;28;20058;-65
2021/12/02 17:06:50;;;;;;;50.30;20.23;;;;;;;;;;6192831;28;20061;-65
2021/12/02 17:09:52;;;;;;;44.03;17.88;;;;;;;;;;6194182;28;20049;-65
2021/12/02 17:12:55;;;;;;;42.70;17.73;;;;;;;;;;6193086;28;20497;-66
2021/12/02 17:15:56;;;;;;;41.33;17.38;;;;;;;;;;6196502;28;21191;-63
2021/12/02 17:18:57;;;;;;;41.60;16.98;;;;;;;;;;6197492;28;20046;-62
2021/12/02 17:21:58;;;;;;;42.15;17.65;;;;;;;;;;6200959;28;20370;-63
2021/12/02 17:24:59;;;;;;;41.88;17.52;;;;;;;;;;6197610;28;20050;-61
2021/12/02 17:28:00;;;;;;;42.95;18.63;;;;;;;;;;6196164;28;20913;-61
2021/12/02 17:31:00;;;;;;;45.28;17.58;;;;;;;;;;6198345;28;20046;-65
2021/12/02 17:34:02;;;;;;;42.95;18.55;;;;;;;;;;6196942;28;20161;-59
2021/12/02 17:37:03;;;;;;;47.30;20.63;;;;;;;;;;6199076;28;20050;-63
2021/12/02 17:40:09;;;;;;;50.72;22.60;;;;;;;;;;6199409;28;20046;-63
2021/12/02 17:43:14;;;;;;;47.45;21.00;;;;;;;;;;6196457;28;20076;-60
2021/12/02 17:46:20;;;;;;;46.85;20.30;;;;;;;;;;6196305;28;20148;-63
2021/12/02 17:49:22;;;;;;;63.60;26.27;;;;;;;;;;6197985;28;20060;-62
2021/12/02 17:52:23;;;;;;;73.70;26.77;;;;;;;;;;6194109;28;20513;-60
2021/12/02 17:55:26;;;;;;;74.35;27.27;;;;;;;;;;6198612;28;20808;-72
2021/12/02 17:58:27;;;;;;;70.38;26.75;;;;;;;;;;6193693;28;20185;-65
2021/12/02 18:01:28;;;;;;;75.90;29.13;;;;;;;;;;6199709;28;20129;-62
2021/12/02 18:04:30;;;;;;;120.17;45.77;;;;;;;;;;6204602;28;20049;-60
2021/12/02 18:07:31;;;;;;;109.78;40.92;;;;;;;;;;6211887;28;20105;-65
2021/12/02 18:10:32;;;;;;;70.47;27.60;;;;;;;;;;6197963;28;20050;-64
2021/12/02 18:13:33;;;;;;;58.38;24.90;;;;;;;;;;6199824;28;20170;-65
2021/12/02 18:16:35;;;;;;;48.65;22.20;;;;;;;;;;6203098;28;20050;-60
2021/12/02 18:19:36;;;;;;;49.05;21.52;;;;;;;;;;6224433;28;20050;-65
2021/12/02 18:22:37;;;;;;;52.45;22.92;;;;;;;;;;6196497;28;20094;-62
2021/12/02 18:25:37;;;;;;;49.80;21.33;;;;;;;;;;6199302;28;20056;-61
2021/12/02 18:28:38;;;;;;;49.97;21.15;;;;;;;;;;6199567;28;20485;-59
2021/12/02 18:31:39;;;;;;;51.53;21.30;;;;;;;;;;6207954;28;20045;-60
2021/12/02 18:34:40;;;;;;;51.15;22.20;;;;;;;;;;6205628;28;20054;-59
2021/12/02 18:37:41;;;;;;;71.17;28.83;;;;;;;;;;6208406;28;20045;-65
2021/12/02 18:40:42;;;;;;;68.30;27.48;;;;;;;;;;6202803;28;20413;-60
2021/12/02 18:43:43;;;;;;;54.45;24.58;;;;;;;;;;6202706;28;20096;-60
2021/12/02 18:46:44;;;;;;;67.15;27.08;;;;;;;;;;6203031;28;20050;-65
2021/12/02 18:49:46;;;;;;;77.22;30.52;;;;;;;;;;6203422;28;20049;-60
2021/12/02 18:52:47;;;;;;;75.82;30.73;;;;;;;;;;6206608;28;20045;-59